sensor_id;sensor_type;location;lat;lon;timestamp;pressure;altitude;pressure_sealevel;temperature;humidity
43420;BME280;29017;51.514;-0.178;2023-02-04T00:02:24;103131.91;;;11.79;86.71
43420;BME280;29017;51.514;-0.178;2023-02-04T00:04:51;103131.19;;;11.77;86.74
43420;BME280;29017;51.514;-0.178;2023-02-04T00:07:17;103122.53;;;11.75;86.75
43420;BME280;29017;51.514;-0.178;2023-02-04T00:09:44;103126.22;;;11.72;86.99
43420;BME280;29017;51.514;-0.178;2023-02-04T00:12:13;103127.25;;;11.70;86.91
43420;BME280;29017;51.514;-0.178;2023-02-04T00:14:40;103126.63;;;11.66;87.06
43420;BME280;29017;51.514;-0.178;2023-02-04T00:17:06;103118.78;;;11.65;87.17
43420;BME280;29017;51.514;-0.178;2023-02-04T00:19:35;103123.34;;;11.63;87.35
43420;BME280;29017;51.514;-0.178;2023-02-04T00:22:03;103118.16;;;11.61;87.42
43420;BME280;29017;51.514;-0.178;2023-02-04T00:24:30;103129.66;;;11.60;87.79
43420;BME280;29017;51.514;-0.178;2023-02-04T00:26:57;103127.22;;;11.57;87.71
43420;BME280;29017;51.514;-0.178;2023-02-04T00:29:24;103125.63;;;11.54;87.36
43420;BME280;29017;51.514;-0.178;2023-02-04T00:31:51;103127.63;;;11.51;87.43
43420;BME280;29017;51.514;-0.178;2023-02-04T00:34:18;103123.53;;;11.47;87.49
43420;BME280;29017;51.514;-0.178;2023-02-04T00:36:45;103137.94;;;11.41;87.55
43420;BME280;29017;51.514;-0.178;2023-02-04T00:39:12;103133.81;;;11.37;87.97
43420;BME280;29017;51.514;-0.178;2023-02-04T00:41:39;103138.34;;;11.35;88.11
43420;BME280;29017;51.514;-0.178;2023-02-04T00:44:08;103134.94;;;11.33;88.28
43420;BME280;29017;51.514;-0.178;2023-02-04T00:46:35;103142.13;;;11.31;88.41
43420;BME280;29017;51.514;-0.178;2023-02-04T00:49:01;103128.19;;;11.29;88.68
43420;BME280;29017;51.514;-0.178;2023-02-04T00:51:28;103126.50;;;11.28;88.90
43420;BME280;29017;51.514;-0.178;2023-02-04T00:53:55;103132.63;;;11.29;88.69
43420;BME280;29017;51.514;-0.178;2023-02-04T00:56:22;103134.41;;;11.28;88.87
43420;BME280;29017;51.514;-0.178;2023-02-04T00:58:49;103138.75;;;11.29;89.00
43420;BME280;29017;51.514;-0.178;2023-02-04T01:01:16;103140.34;;;11.32;88.74
43420;BME280;29017;51.514;-0.178;2023-02-04T01:03:42;103143.63;;;11.35;89.04
43420;BME280;29017;51.514;-0.178;2023-02-04T01:06:10;103142.56;;;11.38;88.74
43420;BME280;29017;51.514;-0.178;2023-02-04T01:08:37;103137.09;;;11.41;88.59
43420;BME280;29017;51.514;-0.178;2023-02-04T01:11:07;103146.50;;;11.45;88.66
43420;BME280;29017;51.514;-0.178;2023-02-04T01:13:34;103141.13;;;11.46;88.35
43420;BME280;29017;51.514;-0.178;2023-02-04T01:16:01;103146.19;;;11.49;88.01
43420;BME280;29017;51.514;-0.178;2023-02-04T01:18:27;103155.69;;;11.52;87.72
43420;BME280;29017;51.514;-0.178;2023-02-04T01:20:54;103152.94;;;11.53;87.55
43420;BME280;29017;51.514;-0.178;2023-02-04T01:23:21;103161.59;;;11.55;87.69
43420;BME280;29017;51.514;-0.178;2023-02-04T01:25:48;103158.75;;;11.58;87.66
43420;BME280;29017;51.514;-0.178;2023-02-04T01:28:15;103160.44;;;11.59;87.74
43420;BME280;29017;51.514;-0.178;2023-02-04T01:30:42;103159.41;;;11.62;87.58
43420;BME280;29017;51.514;-0.178;2023-02-04T01:33:09;103155.72;;;11.65;87.74
43420;BME280;29017;51.514;-0.178;2023-02-04T01:35:36;103154.78;;;11.66;87.68
43420;BME280;29017;51.514;-0.178;2023-02-04T01:38:03;103166.06;;;11.68;87.75
43420;BME280;29017;51.514;-0.178;2023-02-04T01:40:30;103167.56;;;11.72;87.88
43420;BME280;29017;51.514;-0.178;2023-02-04T01:42:58;103162.22;;;11.73;87.71
43420;BME280;29017;51.514;-0.178;2023-02-04T01:45:25;103171.69;;;11.76;87.69
43420;BME280;29017;51.514;-0.178;2023-02-04T01:47:51;103167.28;;;11.76;87.48
43420;BME280;29017;51.514;-0.178;2023-02-04T01:50:18;103168.03;;;11.78;87.72
43420;BME280;29017;51.514;-0.178;2023-02-04T01:52:45;103166.13;;;11.80;87.61
43420;BME280;29017;51.514;-0.178;2023-02-04T01:55:15;103171.41;;;11.80;87.96
43420;BME280;29017;51.514;-0.178;2023-02-04T01:57:42;103175.72;;;11.81;88.03
43420;BME280;29017;51.514;-0.178;2023-02-04T02:00:12;103171.31;;;11.82;88.02
43420;BME280;29017;51.514;-0.178;2023-02-04T02:02:42;103177.31;;;11.84;87.74
43420;BME280;29017;51.514;-0.178;2023-02-04T02:05:10;103177.31;;;11.84;87.87
43420;BME280;29017;51.514;-0.178;2023-02-04T02:07:38;103178.16;;;11.84;88.04
43420;BME280;29017;51.514;-0.178;2023-02-04T02:10:05;103172.88;;;11.84;87.97
43420;BME280;29017;51.514;-0.178;2023-02-04T02:12:32;103172.78;;;11.86;87.85
43420;BME280;29017;51.514;-0.178;2023-02-04T02:14:59;103180.69;;;11.86;88.05
43420;BME280;29017;51.514;-0.178;2023-02-04T02:17:26;103166.88;;;11.82;87.88
43420;BME280;29017;51.514;-0.178;2023-02-04T02:19:53;103179.22;;;11.82;87.93
43420;BME280;29017;51.514;-0.178;2023-02-04T02:22:24;103172.16;;;11.82;88.35
43420;BME280;29017;51.514;-0.178;2023-02-04T02:24:53;103171.22;;;11.83;88.20
43420;BME280;29017;51.514;-0.178;2023-02-04T02:27:20;103162.44;;;11.83;88.20
43420;BME280;29017;51.514;-0.178;2023-02-04T02:29:47;103169.50;;;11.82;88.25
43420;BME280;29017;51.514;-0.178;2023-02-04T02:32:15;103166.88;;;11.82;88.31
43420;BME280;29017;51.514;-0.178;2023-02-04T02:34:42;103176.47;;;11.83;88.43
43420;BME280;29017;51.514;-0.178;2023-02-04T02:37:10;103168.44;;;11.85;88.60
43420;BME280;29017;51.514;-0.178;2023-02-04T02:39:38;103171.84;;;11.87;88.57
43420;BME280;29017;51.514;-0.178;2023-02-04T02:42:06;103164.88;;;11.86;88.21
43420;BME280;29017;51.514;-0.178;2023-02-04T02:44:33;103168.34;;;11.86;88.27
43420;BME280;29017;51.514;-0.178;2023-02-04T02:47:00;103171.84;;;11.87;88.55
43420;BME280;29017;51.514;-0.178;2023-02-04T02:49:30;103166.66;;;11.85;88.32
43420;BME280;29017;51.514;-0.178;2023-02-04T02:51:57;103167.72;;;11.83;88.18
43420;BME280;29017;51.514;-0.178;2023-02-04T02:54:26;103163.47;;;11.80;88.21
43420;BME280;29017;51.514;-0.178;2023-02-04T02:56:53;103162.94;;;11.75;88.21
43420;BME280;29017;51.514;-0.178;2023-02-04T02:59:21;103163.13;;;11.72;88.28
43420;BME280;29017;51.514;-0.178;2023-02-04T03:01:50;103158.78;;;11.71;88.41
43420;BME280;29017;51.514;-0.178;2023-02-04T03:04:17;103156.25;;;11.70;88.49
43420;BME280;29017;51.514;-0.178;2023-02-04T03:06:45;103153.75;;;11.68;88.42
43420;BME280;29017;51.514;-0.178;2023-02-04T03:09:12;103162.38;;;11.70;88.55
43420;BME280;29017;51.514;-0.178;2023-02-04T03:11:39;103156.16;;;11.71;88.18
43420;BME280;29017;51.514;-0.178;2023-02-04T03:14:06;103144.75;;;11.71;87.96
43420;BME280;29017;51.514;-0.178;2023-02-04T03:16:33;103161.53;;;11.70;87.74
43420;BME280;29017;51.514;-0.178;2023-02-04T03:19:02;103152.75;;;11.69;87.86
43420;BME280;29017;51.514;-0.178;2023-02-04T03:21:31;103147.41;;;11.71;88.28
43420;BME280;29017;51.514;-0.178;2023-02-04T03:23:59;103146.41;;;11.73;88.06
43420;BME280;29017;51.514;-0.178;2023-02-04T03:26:25;103135.06;;;11.71;88.21
43420;BME280;29017;51.514;-0.178;2023-02-04T03:28:53;103139.41;;;11.72;87.67
43420;BME280;29017;51.514;-0.178;2023-02-04T03:31:20;103142.78;;;11.74;87.75
43420;BME280;29017;51.514;-0.178;2023-02-04T03:33:47;103142.59;;;11.77;87.93
43420;BME280;29017;51.514;-0.178;2023-02-04T03:36:14;103146.94;;;11.78;87.82
43420;BME280;29017;51.514;-0.178;2023-02-04T03:38:40;103143.53;;;11.76;87.14
43420;BME280;29017;51.514;-0.178;2023-02-04T03:41:08;103138.16;;;11.78;87.22
43420;BME280;29017;51.514;-0.178;2023-02-04T03:43:35;103142.38;;;11.80;87.33
43420;BME280;29017;51.514;-0.178;2023-02-04T03:46:02;103145.13;;;11.79;87.02
43420;BME280;29017;51.514;-0.178;2023-02-04T03:48:29;103145.13;;;11.79;88.03
43420;BME280;29017;51.514;-0.178;2023-02-04T03:50:56;103141.44;;;11.81;87.91
43420;BME280;29017;51.514;-0.178;2023-02-04T03:53:23;103132.69;;;11.81;87.53
43420;BME280;29017;51.514;-0.178;2023-02-04T03:55:49;103149.44;;;11.80;87.80
43420;BME280;29017;51.514;-0.178;2023-02-04T03:58:19;103147.66;;;11.80;87.75
43420;BME280;29017;51.514;-0.178;2023-02-04T04:00:46;103145.13;;;11.79;87.82
43420;BME280;29017;51.514;-0.178;2023-02-04T04:03:12;103151.13;;;11.81;88.26
43420;BME280;29017;51.514;-0.178;2023-02-04T04:05:39;103148.50;;;11.81;88.60
43420;BME280;29017;51.514;-0.178;2023-02-04T04:08:06;103152.00;;;11.81;88.49
43420;BME280;29017;51.514;-0.178;2023-02-04T04:10:33;103134.56;;;11.79;88.41
43420;BME280;29017;51.514;-0.178;2023-02-04T04:13:00;103147.75;;;11.79;88.71
43420;BME280;29017;51.514;-0.178;2023-02-04T04:15:27;103142.47;;;11.79;88.78
43420;BME280;29017;51.514;-0.178;2023-02-04T04:17:54;103155.66;;;11.79;88.77
43420;BME280;29017;51.514;-0.178;2023-02-04T04:20:21;103158.22;;;11.80;88.76
43420;BME280;29017;51.514;-0.178;2023-02-04T04:22:51;103160.13;;;11.78;88.79
43420;BME280;29017;51.514;-0.178;2023-02-04T04:25:18;103169.06;;;11.76;88.70
43420;BME280;29017;51.514;-0.178;2023-02-04T04:27:44;103176.97;;;11.76;88.93
43420;BME280;29017;51.514;-0.178;2023-02-04T04:30:12;103172.47;;;11.78;88.82
43420;BME280;29017;51.514;-0.178;2023-02-04T04:32:38;103173.19;;;11.80;88.84
43420;BME280;29017;51.514;-0.178;2023-02-04T04:35:07;103167.91;;;11.80;88.70
43420;BME280;29017;51.514;-0.178;2023-02-04T04:37:34;103165.41;;;11.78;88.64
43420;BME280;29017;51.514;-0.178;2023-02-04T04:40:02;103170.00;;;11.75;88.80
43420;BME280;29017;51.514;-0.178;2023-02-04T04:42:29;103170.13;;;11.73;88.89
43420;BME280;29017;51.514;-0.178;2023-02-04T04:44:55;103170.75;;;11.77;89.03
43420;BME280;29017;51.514;-0.178;2023-02-04T04:47:22;103177.72;;;11.78;88.84
43420;BME280;29017;51.514;-0.178;2023-02-04T04:49:49;103174.97;;;11.79;88.85
43420;BME280;29017;51.514;-0.178;2023-02-04T04:52:16;103176.97;;;11.76;88.83
43420;BME280;29017;51.514;-0.178;2023-02-04T04:54:43;103183.38;;;11.72;88.90
43420;BME280;29017;51.514;-0.178;2023-02-04T04:57:09;103181.59;;;11.72;89.11
43420;BME280;29017;51.514;-0.178;2023-02-04T04:59:38;103179.84;;;11.73;89.24
43420;BME280;29017;51.514;-0.178;2023-02-04T05:02:05;103192.91;;;11.74;88.91
43420;BME280;29017;51.514;-0.178;2023-02-04T05:04:32;103194.59;;;11.75;88.93
43420;BME280;29017;51.514;-0.178;2023-02-04T05:06:59;103189.31;;;11.75;89.19
43420;BME280;29017;51.514;-0.178;2023-02-04T05:09:25;103193.94;;;11.72;88.95
43420;BME280;29017;51.514;-0.178;2023-02-04T05:11:53;103192.13;;;11.72;89.63
43420;BME280;29017;51.514;-0.178;2023-02-04T05:14:20;103196.38;;;11.75;90.17
43420;BME280;29017;51.514;-0.178;2023-02-04T05:16:47;103188.38;;;11.76;89.58
43420;BME280;29017;51.514;-0.178;2023-02-04T05:19:14;103187.75;;;11.73;89.36
43420;BME280;29017;51.514;-0.178;2023-02-04T05:21:41;103198.34;;;11.71;89.06
43420;BME280;29017;51.514;-0.178;2023-02-04T05:24:08;103190.38;;;11.73;88.86
43420;BME280;29017;51.514;-0.178;2023-02-04T05:26:34;103194.59;;;11.75;89.31
43420;BME280;29017;51.514;-0.178;2023-02-04T05:29:01;103201.66;;;11.75;89.30
43420;BME280;29017;51.514;-0.178;2023-02-04T05:31:28;103202.69;;;11.72;88.73
43420;BME280;29017;51.514;-0.178;2023-02-04T05:33:55;103201.94;;;11.70;88.63
43420;BME280;29017;51.514;-0.178;2023-02-04T05:36:22;103201.94;;;11.70;88.53
43420;BME280;29017;51.514;-0.178;2023-02-04T05:38:48;103202.03;;;11.69;88.46
43420;BME280;29017;51.514;-0.178;2023-02-04T05:41:15;103199.38;;;11.69;88.64
43420;BME280;29017;51.514;-0.178;2023-02-04T05:43:42;103205.72;;;11.66;88.46
43420;BME280;29017;51.514;-0.178;2023-02-04T05:46:09;103211.00;;;11.66;88.35
43420;BME280;29017;51.514;-0.178;2023-02-04T05:48:36;103206.66;;;11.65;88.42
43420;BME280;29017;51.514;-0.178;2023-02-04T05:51:05;103206.56;;;11.67;88.24
43420;BME280;29017;51.514;-0.178;2023-02-04T05:53:32;103211.00;;;11.66;88.18
43420;BME280;29017;51.514;-0.178;2023-02-04T05:55:59;103209.31;;;11.65;88.40
43420;BME280;29017;51.514;-0.178;2023-02-04T05:58:26;103204.13;;;11.64;88.17
43420;BME280;29017;51.514;-0.178;2023-02-04T06:00:59;103211.31;;;11.62;88.08
43420;BME280;29017;51.514;-0.178;2023-02-04T06:03:27;103211.41;;;11.60;88.17
43420;BME280;29017;51.514;-0.178;2023-02-04T06:05:55;103212.47;;;11.57;88.31
43420;BME280;29017;51.514;-0.178;2023-02-04T06:08:22;103212.47;;;11.57;88.62
43420;BME280;29017;51.514;-0.178;2023-02-04T06:10:51;103210.44;;;11.61;88.55
43420;BME280;29017;51.514;-0.178;2023-02-04T06:13:17;103214.78;;;11.62;88.61
43420;BME280;29017;51.514;-0.178;2023-02-04T06:15:44;103216.56;;;11.62;88.40
43420;BME280;29017;51.514;-0.178;2023-02-04T06:18:11;103219.22;;;11.62;87.98
43420;BME280;29017;51.514;-0.178;2023-02-04T06:20:39;103217.44;;;11.62;88.07
43420;BME280;29017;51.514;-0.178;2023-02-04T06:23:06;103213.94;;;11.62;88.39
43420;BME280;29017;51.514;-0.178;2023-02-04T06:25:32;103214.66;;;11.64;88.21
43420;BME280;29017;51.514;-0.178;2023-02-04T06:27:59;103226.06;;;11.64;87.91
43420;BME280;29017;51.514;-0.178;2023-02-04T06:30:29;103228.81;;;11.63;87.83
43420;BME280;29017;51.514;-0.178;2023-02-04T06:32:56;103229.75;;;11.62;87.90
43420;BME280;29017;51.514;-0.178;2023-02-04T06:35:23;103222.78;;;11.61;87.78
43420;BME280;29017;51.514;-0.178;2023-02-04T06:37:50;103232.50;;;11.60;88.08
43420;BME280;29017;51.514;-0.178;2023-02-04T06:40:17;103229.84;;;11.60;87.96
43420;BME280;29017;51.514;-0.178;2023-02-04T06:42:44;103234.28;;;11.59;88.08
43420;BME280;29017;51.514;-0.178;2023-02-04T06:45:11;103230.78;;;11.59;88.03
43420;BME280;29017;51.514;-0.178;2023-02-04T06:47:38;103239.63;;;11.58;87.84
43420;BME280;29017;51.514;-0.178;2023-02-04T06:50:05;103244.09;;;11.57;88.11
43420;BME280;29017;51.514;-0.178;2023-02-04T06:52:32;103243.13;;;11.58;88.10
43420;BME280;29017;51.514;-0.178;2023-02-04T06:54:59;103252.00;;;11.57;88.19
43420;BME280;29017;51.514;-0.178;2023-02-04T06:57:26;103250.19;;;11.58;87.81
43420;BME280;29017;51.514;-0.178;2023-02-04T06:59:53;103242.56;;;11.53;87.48
43420;BME280;29017;51.514;-0.178;2023-02-04T07:02:20;103253.13;;;11.53;87.82
43420;BME280;29017;51.514;-0.178;2023-02-04T07:04:46;103257.56;;;11.53;87.96
43420;BME280;29017;51.514;-0.178;2023-02-04T07:07:14;103252.28;;;11.53;88.13
43420;BME280;29017;51.514;-0.178;2023-02-04T07:09:41;103248.81;;;11.52;87.91
43420;BME280;29017;51.514;-0.178;2023-02-04T07:12:08;103246.38;;;11.49;87.56
43420;BME280;29017;51.514;-0.178;2023-02-04T07:14:37;103251.63;;;11.49;87.96
43420;BME280;29017;51.514;-0.178;2023-02-04T07:17:05;103244.66;;;11.48;88.15
43420;BME280;29017;51.514;-0.178;2023-02-04T07:19:31;103244.78;;;11.47;88.42
43420;BME280;29017;51.514;-0.178;2023-02-04T07:21:59;103254.34;;;11.48;88.25
43420;BME280;29017;51.514;-0.178;2023-02-04T07:24:26;103256.19;;;11.47;87.97
43420;BME280;29017;51.514;-0.178;2023-02-04T07:26:53;103254.47;;;11.46;87.98
43420;BME280;29017;51.514;-0.178;2023-02-04T07:29:20;103257.13;;;11.46;88.29
43420;BME280;29017;51.514;-0.178;2023-02-04T07:31:51;103259.75;;;11.46;88.37
43420;BME280;29017;51.514;-0.178;2023-02-04T07:34:20;103257.13;;;11.46;88.17
43420;BME280;29017;51.514;-0.178;2023-02-04T07:36:47;103265.03;;;11.46;88.15
43420;BME280;29017;51.514;-0.178;2023-02-04T07:39:14;103262.28;;;11.48;88.26
43420;BME280;29017;51.514;-0.178;2023-02-04T07:41:41;103265.03;;;11.46;88.15
43420;BME280;29017;51.514;-0.178;2023-02-04T07:44:08;103267.66;;;11.46;87.88
43420;BME280;29017;51.514;-0.178;2023-02-04T07:46:35;103275.56;;;11.46;88.38
43420;BME280;29017;51.514;-0.178;2023-02-04T07:49:01;103271.88;;;11.49;88.46
43420;BME280;29017;51.514;-0.178;2023-02-04T07:51:28;103273.66;;;11.48;88.22
43420;BME280;29017;51.514;-0.178;2023-02-04T07:53:56;103272.81;;;11.48;88.31
43420;BME280;29017;51.514;-0.178;2023-02-04T07:56:23;103280.63;;;11.49;88.01
43420;BME280;29017;51.514;-0.178;2023-02-04T07:58:50;103279.78;;;11.49;88.09
43420;BME280;29017;51.514;-0.178;2023-02-04T08:01:17;103283.09;;;11.52;87.83
43420;BME280;29017;51.514;-0.178;2023-02-04T08:03:44;103285.53;;;11.55;87.97
43420;BME280;29017;51.514;-0.178;2023-02-04T08:06:11;103286.47;;;11.54;87.46
43420;BME280;29017;51.514;-0.178;2023-02-04T08:08:38;103295.22;;;11.55;87.51
43420;BME280;29017;51.514;-0.178;2023-02-04T08:11:05;103292.59;;;11.55;87.50
43420;BME280;29017;51.514;-0.178;2023-02-04T08:13:32;103302.91;;;11.58;87.78
43420;BME280;29017;51.514;-0.178;2023-02-04T08:15:59;103300.09;;;11.61;87.97
43420;BME280;29017;51.514;-0.178;2023-02-04T08:18:26;103306.97;;;11.64;87.40
43420;BME280;29017;51.514;-0.178;2023-02-04T08:20:53;103299.91;;;11.64;87.01
43420;BME280;29017;51.514;-0.178;2023-02-04T08:23:20;103308.66;;;11.65;87.07
43420;BME280;29017;51.514;-0.178;2023-02-04T08:25:47;103309.41;;;11.67;87.16
43420;BME280;29017;51.514;-0.178;2023-02-04T08:28:14;103298.78;;;11.68;87.39
43420;BME280;29017;51.514;-0.178;2023-02-04T08:30:41;103316.19;;;11.71;87.25
43420;BME280;29017;51.514;-0.178;2023-02-04T08:33:08;103318.81;;;11.71;86.81
43420;BME280;29017;51.514;-0.178;2023-02-04T08:35:35;103322.25;;;11.73;86.59
43420;BME280;29017;51.514;-0.178;2023-02-04T08:38:02;103331.06;;;11.72;86.54
43420;BME280;29017;51.514;-0.178;2023-02-04T08:40:29;103326.66;;;11.72;86.08
43420;BME280;29017;51.514;-0.178;2023-02-04T08:42:57;103334.28;;;11.77;86.34
43420;BME280;29017;51.514;-0.178;2023-02-04T08:45:24;103328.25;;;11.75;85.90
43420;BME280;29017;51.514;-0.178;2023-02-04T08:47:50;103331.84;;;11.74;85.71
43420;BME280;29017;51.514;-0.178;2023-02-04T08:50:17;103335.31;;;11.74;85.47
43420;BME280;29017;51.514;-0.178;2023-02-04T08:52:44;103338.94;;;11.73;85.36
43420;BME280;29017;51.514;-0.178;2023-02-04T08:55:11;103344.84;;;11.77;85.90
43420;BME280;29017;51.514;-0.178;2023-02-04T08:57:38;103343.16;;;11.76;85.90
43420;BME280;29017;51.514;-0.178;2023-02-04T09:00:08;103339.66;;;11.75;85.64
43420;BME280;29017;51.514;-0.178;2023-02-04T09:02:35;103343.22;;;11.74;85.29
43420;BME280;29017;51.514;-0.178;2023-02-04T09:05:02;103345.19;;;11.71;85.04
43420;BME280;29017;51.514;-0.178;2023-02-04T09:07:29;103354.81;;;11.72;84.88
43420;BME280;29017;51.514;-0.178;2023-02-04T09:09:56;103349.34;;;11.75;85.19
43420;BME280;29017;51.514;-0.178;2023-02-04T09:12:23;103352.66;;;11.78;85.31
43420;BME280;29017;51.514;-0.178;2023-02-04T09:14:50;103358.97;;;11.76;85.05
43420;BME280;29017;51.514;-0.178;2023-02-04T09:17:17;103345.09;;;11.72;84.37
43420;BME280;29017;51.514;-0.178;2023-02-04T09:19:44;103351.31;;;11.71;84.41
43420;BME280;29017;51.514;-0.178;2023-02-04T09:22:11;103357.28;;;11.75;84.66
43420;BME280;29017;51.514;-0.178;2023-02-04T09:24:38;103350.97;;;11.77;84.60
43420;BME280;29017;51.514;-0.178;2023-02-04T09:27:05;103353.31;;;11.82;84.64
43420;BME280;29017;51.514;-0.178;2023-02-04T09:29:35;103353.31;;;11.82;84.45
43420;BME280;29017;51.514;-0.178;2023-02-04T09:32:02;103358.38;;;11.85;83.97
43420;BME280;29017;51.514;-0.178;2023-02-04T09:34:30;103359.13;;;11.87;83.95
43420;BME280;29017;51.514;-0.178;2023-02-04T09:36:56;103351.94;;;11.89;83.67
43420;BME280;29017;51.514;-0.178;2023-02-04T09:39:23;103349.97;;;11.92;83.99
43420;BME280;29017;51.514;-0.178;2023-02-04T09:41:51;103350.84;;;11.93;83.67
43420;BME280;29017;51.514;-0.178;2023-02-04T09:44:20;103352.63;;;11.92;82.99
43420;BME280;29017;51.514;-0.178;2023-02-04T09:46:49;103359.69;;;11.92;82.91
43420;BME280;29017;51.514;-0.178;2023-02-04T09:49:18;103358.75;;;11.93;82.89
43420;BME280;29017;51.514;-0.178;2023-02-04T09:51:45;103362.31;;;11.92;83.26
43420;BME280;29017;51.514;-0.178;2023-02-04T09:54:15;103359.59;;;11.93;82.94
43420;BME280;29017;51.514;-0.178;2023-02-04T09:56:43;103372.59;;;11.96;82.57
43420;BME280;29017;51.514;-0.178;2023-02-04T09:59:11;103371.66;;;11.97;82.41
43420;BME280;29017;51.514;-0.178;2023-02-04T10:01:38;103371.53;;;11.99;82.13
43420;BME280;29017;51.514;-0.178;2023-02-04T10:04:07;103373.91;;;12.04;82.77
43420;BME280;29017;51.514;-0.178;2023-02-04T10:06:35;103372.84;;;12.06;82.32
43420;BME280;29017;51.514;-0.178;2023-02-04T10:09:02;103370.09;;;12.08;81.21
43420;BME280;29017;51.514;-0.178;2023-02-04T10:11:30;103371.59;;;12.12;80.69
43420;BME280;29017;51.514;-0.178;2023-02-04T10:13:58;103372.22;;;12.15;80.59
43420;BME280;29017;51.514;-0.178;2023-02-04T10:16:27;103375.00;;;12.14;80.03
43420;BME280;29017;51.514;-0.178;2023-02-04T10:21:27;103377.13;;;12.21;80.51
43420;BME280;29017;51.514;-0.178;2023-02-04T10:23:55;103372.38;;;12.26;79.58
43420;BME280;29017;51.514;-0.178;2023-02-04T10:26:24;103369.44;;;12.31;78.99
43420;BME280;29017;51.514;-0.178;2023-02-04T10:34:01;103379.19;;;12.43;78.20
43420;BME280;29017;51.514;-0.178;2023-02-04T10:36:35;103387.44;;;12.51;77.80
43420;BME280;29017;51.514;-0.178;2023-02-04T10:39:03;103383.78;;;12.54;77.47
43420;BME280;29017;51.514;-0.178;2023-02-04T10:41:31;103385.25;;;12.58;76.76
43420;BME280;29017;51.514;-0.178;2023-02-04T10:46:29;103391.16;;;12.61;76.79
43420;BME280;29017;51.514;-0.178;2023-02-04T10:48:57;103392.66;;;12.65;76.36
43420;BME280;29017;51.514;-0.178;2023-02-04T10:51:24;103392.25;;;12.71;75.93
43420;BME280;29017;51.514;-0.178;2023-02-04T10:53:51;103397.13;;;12.77;75.39
43420;BME280;29017;51.514;-0.178;2023-02-04T10:56:21;103403.16;;;12.79;75.02
43420;BME280;29017;51.514;-0.178;2023-02-04T10:58:49;103405.50;;;12.84;74.61
43420;BME280;29017;51.514;-0.178;2023-02-04T11:01:15;103402.53;;;12.89;74.67
43420;BME280;29017;51.514;-0.178;2023-02-04T11:03:43;103404.75;;;12.95;74.50
43420;BME280;29017;51.514;-0.178;2023-02-04T11:06:17;103410.69;;;12.98;74.35
43420;BME280;29017;51.514;-0.178;2023-02-04T11:08:46;103401.81;;;12.99;74.55
43420;BME280;29017;51.514;-0.178;2023-02-04T11:23:44;103404.31;;;12.88;70.54
43420;BME280;29017;51.514;-0.178;2023-02-04T11:26:12;103389.50;;;12.85;70.60
43420;BME280;29017;51.514;-0.178;2023-02-04T11:33:40;103390.66;;;12.81;70.60
43420;BME280;29017;51.514;-0.178;2023-02-04T11:36:09;103394.16;;;12.82;70.58
43420;BME280;29017;51.514;-0.178;2023-02-04T11:38:37;103391.63;;;12.80;71.25
43420;BME280;29017;51.514;-0.178;2023-02-04T11:41:11;103398.59;;;12.81;72.79
43420;BME280;29017;51.514;-0.178;2023-02-04T11:43:40;103391.09;;;12.88;73.60
43420;BME280;29017;51.514;-0.178;2023-02-04T11:48:37;103395.84;;;12.96;73.39
43420;BME280;29017;51.514;-0.178;2023-02-04T11:53:34;103396.13;;;13.18;77.35
43420;BME280;29017;51.514;-0.178;2023-02-04T11:56:01;103395.81;;;13.22;76.83
43420;BME280;29017;51.514;-0.178;2023-02-04T11:58:29;103399.19;;;13.24;73.87
43420;BME280;29017;51.514;-0.178;2023-02-04T12:00:57;103399.06;;;13.26;72.28
43420;BME280;29017;51.514;-0.178;2023-02-04T12:03:26;103396.56;;;13.24;71.67
43420;BME280;29017;51.514;-0.178;2023-02-04T12:05:56;103395.06;;;13.20;71.89
43420;BME280;29017;51.514;-0.178;2023-02-04T12:08:26;103395.28;;;13.17;71.93
43420;BME280;29017;51.514;-0.178;2023-02-04T12:13:27;103395.28;;;13.17;77.37
43420;BME280;29017;51.514;-0.178;2023-02-04T12:15:58;103392.09;;;13.12;75.37
43420;BME280;29017;51.514;-0.178;2023-02-04T12:18:28;103398.53;;;13.08;73.84
43420;BME280;29017;51.514;-0.178;2023-02-04T12:20:55;103399.88;;;13.01;73.11
43420;BME280;29017;51.514;-0.178;2023-02-04T12:23:23;103397.56;;;12.97;72.91
43420;BME280;29017;51.514;-0.178;2023-02-04T12:25:50;103398.81;;;12.91;72.42
43420;BME280;29017;51.514;-0.178;2023-02-04T12:28:17;103401.69;;;12.88;73.08
43420;BME280;29017;51.514;-0.178;2023-02-04T12:30:44;103401.78;;;12.86;73.64
43420;BME280;29017;51.514;-0.178;2023-02-04T12:33:11;103405.50;;;12.84;73.40
43420;BME280;29017;51.514;-0.178;2023-02-04T12:35:40;103398.59;;;12.81;73.51
43420;BME280;29017;51.514;-0.178;2023-02-04T12:38:07;103400.50;;;12.79;75.83
43420;BME280;29017;51.514;-0.178;2023-02-04T12:40:35;103413.06;;;12.76;75.56
43420;BME280;29017;51.514;-0.178;2023-02-04T12:43:02;103416.66;;;12.75;75.71
43420;BME280;29017;51.514;-0.178;2023-02-04T12:45:30;103403.88;;;12.69;75.60
43420;BME280;29017;51.514;-0.178;2023-02-04T12:47:57;103397.84;;;12.67;75.28
43420;BME280;29017;51.514;-0.178;2023-02-04T12:50:24;103398.59;;;12.69;75.04
43420;BME280;29017;51.514;-0.178;2023-02-04T12:52:53;103409.34;;;12.66;74.61
43420;BME280;29017;51.514;-0.178;2023-02-04T12:55:21;103404.19;;;12.64;74.31
43420;BME280;29017;51.514;-0.178;2023-02-04T12:57:48;103409.34;;;12.66;73.78
43420;BME280;29017;51.514;-0.178;2023-02-04T13:00:16;103406.53;;;12.69;74.16
43420;BME280;29017;51.514;-0.178;2023-02-04T13:02:43;103416.09;;;12.70;73.96
43420;BME280;29017;51.514;-0.178;2023-02-04T13:05:11;103410.94;;;12.68;73.09
43420;BME280;29017;51.514;-0.178;2023-02-04T13:07:39;103414.31;;;12.70;73.35
43420;BME280;29017;51.514;-0.178;2023-02-04T13:10:07;103421.38;;;12.70;72.89
43420;BME280;29017;51.514;-0.178;2023-02-04T13:12:34;103415.28;;;12.69;72.31
43420;BME280;29017;51.514;-0.178;2023-02-04T13:15:01;103419.81;;;12.67;72.21
43420;BME280;29017;51.514;-0.178;2023-02-04T13:17:28;103420.03;;;12.64;72.29